createdAt,value
2018-04-14T00:00:24.026Z,0
2018-04-14T00:01:24.032Z,0
2018-04-14T00:02:24.571Z,0
2018-04-14T00:03:24.562Z,0
2018-04-14T00:04:24.601Z,0
2018-04-14T00:05:24.559Z,0
2018-04-14T00:06:24.253Z,0
2018-04-14T00:07:24.492Z,0
2018-04-14T00:08:24.322Z,0
2018-04-14T00:09:24.507Z,0
2018-04-14T00:10:24.128Z,0
2018-04-14T00:11:24.616Z,0
2018-04-14T00:12:24.247Z,0
2018-04-14T00:13:24.466Z,0
2018-04-14T00:14:24.157Z,0
2018-04-14T00:15:23.809Z,0
2018-04-14T00:17:24.436Z,0
2018-04-14T00:18:24.387Z,0
2018-04-14T00:19:24.268Z,0
2018-04-14T00:20:24.155Z,0
2018-04-14T00:21:24.029Z,0
2018-04-14T00:22:24.127Z,0
2018-04-14T00:23:24.206Z,0
2018-04-14T00:24:24.332Z,0
2018-04-14T00:25:24.315Z,0
2018-04-14T00:26:24.302Z,0
2018-04-14T00:27:24.205Z,0
2018-04-14T00:28:24.012Z,0
2018-04-14T00:29:23.865Z,0
2018-04-14T00:30:24.144Z,0
2018-04-14T00:31:23.867Z,0
2018-04-14T00:32:23.957Z,0
2018-04-14T00:33:24.216Z,0
2018-04-14T00:34:24.181Z,0
2018-04-14T00:35:23.952Z,0
2018-04-14T00:36:23.942Z,0
2018-04-14T00:37:23.924Z,0
2018-04-14T00:38:24.140Z,0
2018-04-14T00:39:23.994Z,0
2018-04-14T00:40:23.713Z,0
2018-04-14T00:41:23.598Z,0
2018-04-14T00:42:24.007Z,0
2018-04-14T00:43:24.008Z,0
2018-04-14T00:44:24.157Z,0
2018-04-14T00:45:23.778Z,0
2018-04-14T00:46:23.483Z,0
2018-04-14T00:47:23.778Z,0
2018-04-14T00:48:24.067Z,0
2018-04-14T00:49:23.453Z,0
2018-04-14T00:50:23.980Z,0
2018-04-14T00:51:23.855Z,0
2018-04-14T00:52:24.018Z,0
2018-04-14T00:53:23.426Z,0
2018-04-14T00:54:23.374Z,0
2018-04-14T00:55:23.591Z,0
2018-04-14T00:56:23.933Z,0
2018-04-14T00:57:23.553Z,0
2018-04-14T00:58:23.661Z,0
2018-04-14T00:59:23.297Z,0
2018-04-14T01:00:23.627Z,0
2018-04-14T01:01:23.540Z,0
2018-04-14T01:02:22.960Z,0
2018-04-14T01:03:23.524Z,0
2018-04-14T01:04:23.639Z,0
2018-04-14T01:05:23.772Z,0
2018-04-14T01:06:23.797Z,0
2018-04-14T01:07:23.690Z,0
2018-04-14T01:08:23.940Z,0
2018-04-14T01:09:23.637Z,0
2018-04-14T01:10:23.609Z,0
2018-04-14T01:11:23.612Z,0
2018-04-14T01:12:23.968Z,0
2018-04-14T01:13:23.598Z,0
2018-04-14T01:14:23.598Z,0
2018-04-14T01:15:23.576Z,0
2018-04-14T01:16:23.811Z,0
2018-04-14T01:17:23.285Z,0
2018-04-14T01:18:23.600Z,0
2018-04-14T01:19:23.529Z,0
2018-04-14T01:20:22.992Z,0
2018-04-14T01:21:23.500Z,0
2018-04-14T01:22:23.492Z,0
2018-04-14T01:23:23.488Z,0
2018-04-14T01:24:23.206Z,0
2018-04-14T01:25:23.198Z,0
2018-04-14T01:26:23.183Z,0
2018-04-14T01:27:23.169Z,0
2018-04-14T01:28:23.428Z,0
2018-04-14T01:29:23.418Z,0
2018-04-14T01:30:22.878Z,0
2018-04-14T01:31:23.380Z,0
2018-04-14T01:32:23.424Z,0
2018-04-14T01:33:22.850Z,0
2018-04-14T01:34:23.091Z,0
2018-04-14T01:35:23.085Z,0
2018-04-14T01:36:23.333Z,0
2018-04-14T01:37:23.321Z,0
2018-04-14T01:38:22.797Z,0
2018-04-14T01:39:23.291Z,0
2018-04-14T01:40:23.286Z,0
2018-04-14T01:41:22.755Z,0
2018-04-14T01:42:23.257Z,0
2018-04-14T01:43:22.985Z,0
2018-04-14T01:44:22.977Z,0
2018-04-14T01:45:23.222Z,0
2018-04-14T01:46:22.952Z,0
2018-04-14T01:47:22.940Z,0
2018-04-14T01:48:22.679Z,0
2018-04-14T01:49:23.189Z,0
2018-04-14T01:50:23.056Z,0
2018-04-14T01:51:22.905Z,0
2018-04-14T01:52:22.891Z,0
2018-04-14T01:53:22.874Z,0
2018-04-14T01:54:22.604Z,0
2018-04-14T01:55:22.853Z,0
2018-04-14T01:56:22.844Z,0
2018-04-14T01:57:23.089Z,0
2018-04-14T01:58:22.815Z,0
2018-04-14T01:59:22.807Z,0
2018-04-14T02:00:22.532Z,0
2018-04-14T02:01:23.042Z,0
2018-04-14T02:02:23.031Z,0
2018-04-14T02:03:23.020Z,0
2018-04-14T02:04:22.746Z,0
2018-04-14T02:05:22.991Z,0
2018-04-14T02:06:22.976Z,0
2018-04-14T02:07:22.982Z,0
2018-04-14T02:08:22.966Z,0
2018-04-14T02:09:22.438Z,0
2018-04-14T02:10:22.934Z,0
2018-04-14T02:11:22.150Z,0
2018-04-14T02:12:22.904Z,0
2018-04-14T02:13:22.903Z,0
2018-04-14T02:14:22.887Z,0
2018-04-14T02:15:22.633Z,0
2018-04-14T02:16:22.878Z,0
2018-04-14T02:17:22.865Z,0
2018-04-14T02:18:22.591Z,0
2018-04-14T02:19:22.582Z,0
2018-04-14T02:20:22.815Z,0
2018-04-14T02:21:22.807Z,0
2018-04-14T02:22:22.286Z,0
2018-04-14T02:23:22.788Z,0
2018-04-14T02:24:22.781Z,0
2018-04-14T02:25:22.771Z,0
2018-04-14T02:26:22.495Z,0
2018-04-14T02:27:22.736Z,0
2018-04-14T02:28:22.471Z,0
2018-04-14T02:29:22.716Z,0
2018-04-14T02:30:22.451Z,0
2018-04-14T02:31:22.446Z,0
2018-04-14T02:32:22.716Z,0
2018-04-14T02:33:22.676Z,0
2018-04-14T02:34:22.408Z,0
2018-04-14T02:35:22.451Z,0
2018-04-14T02:36:22.378Z,0
2018-04-14T02:37:22.628Z,0
2018-04-14T02:38:22.356Z,0
2018-04-14T02:39:22.385Z,0
2018-04-14T02:40:22.072Z,0
2018-04-14T02:41:22.592Z,0
2018-04-14T02:42:22.567Z,0
2018-04-14T02:43:22.575Z,0
2018-04-14T02:44:22.551Z,0
2018-04-14T02:45:22.301Z,0
2018-04-14T02:46:22.529Z,0
2018-04-14T02:47:22.516Z,0
2018-04-14T02:48:22.244Z,0
2018-04-14T02:49:22.532Z,0
2018-04-14T02:50:22.485Z,0
2018-04-14T02:51:22.480Z,0
2018-04-14T02:52:22.379Z,0
2018-04-14T02:53:21.931Z,0
2018-04-14T02:54:22.435Z,0
2018-04-14T02:55:22.424Z,0
2018-04-14T02:56:22.160Z,0
2018-04-14T02:57:22.395Z,0
2018-04-14T02:58:22.405Z,0
2018-04-14T02:59:22.130Z,0
2018-04-14T03:00:22.122Z,0
2018-04-14T03:01:22.362Z,0
2018-04-14T03:02:22.349Z,0
2018-04-14T03:03:22.336Z,0
2018-04-14T03:04:22.345Z,0
2018-04-14T03:05:22.318Z,0
2018-04-14T03:06:22.301Z,0
2018-04-14T03:07:22.033Z,0
2018-04-14T03:08:22.277Z,0
2018-04-14T03:09:22.261Z,0
2018-04-14T03:10:22.528Z,0
2018-04-14T03:11:22.003Z,0
2018-04-14T03:12:22.237Z,0
2018-04-14T03:13:22.221Z,0
2018-04-14T03:14:22.213Z,0
2018-04-14T03:15:22.199Z,0
2018-04-14T03:16:22.232Z,0
2018-04-14T03:17:21.916Z,0
2018-04-14T03:18:21.905Z,0
2018-04-14T03:19:21.897Z,0
2018-04-14T03:20:22.146Z,0
2018-04-14T03:21:22.137Z,0
2018-04-14T03:22:22.112Z,0
2018-04-14T03:23:21.849Z,0
2018-04-14T03:24:21.322Z,0
2018-04-14T03:25:21.829Z,0
2018-04-14T03:26:21.305Z,0
2018-04-14T03:27:22.066Z,0
2018-04-14T03:28:22.061Z,0
2018-04-14T03:29:22.040Z,0
2018-04-14T03:30:22.045Z,0
2018-04-14T03:31:22.234Z,0
2018-04-14T03:32:21.497Z,0
2018-04-14T03:33:21.745Z,0
2018-04-14T03:34:21.729Z,0
2018-04-14T03:35:21.460Z,0
2018-04-14T03:36:21.705Z,0
2018-04-14T03:37:21.951Z,0
2018-04-14T03:38:21.948Z,0
2018-04-14T03:39:21.923Z,0
2018-04-14T03:40:21.658Z,0
2018-04-14T03:41:21.915Z,0
2018-04-14T03:42:21.905Z,0
2018-04-14T03:43:21.548Z,0
2018-04-14T03:44:21.869Z,0
2018-04-14T03:45:21.083Z,0
2018-04-14T03:46:21.589Z,0
2018-04-14T03:47:21.578Z,0
2018-04-14T03:48:21.568Z,0
2018-04-14T03:49:21.819Z,0
2018-04-14T03:50:21.809Z,0
2018-04-14T03:51:21.535Z,0
2018-04-14T03:52:21.779Z,0
2018-04-14T03:53:21.769Z,0
2018-04-14T03:54:21.502Z,0
2018-04-14T03:55:21.808Z,0
2018-04-14T03:56:21.734Z,0
2018-04-14T03:57:21.720Z,0
2018-04-14T03:58:21.465Z,4
2018-04-14T03:59:21.182Z,0
2018-04-14T04:00:21.689Z,4
2018-04-14T04:01:21.423Z,4
2018-04-14T04:02:21.678Z,8
2018-04-14T04:03:21.398Z,4
2018-04-14T04:04:21.644Z,8
2018-04-14T04:05:21.377Z,8
2018-04-14T04:06:21.621Z,8
2018-04-14T04:07:21.609Z,12
2018-04-14T04:08:21.604Z,12
2018-04-14T04:09:21.334Z,12
2018-04-14T04:10:21.062Z,12
2018-04-14T04:11:21.585Z,16
2018-04-14T04:12:21.296Z,20
2018-04-14T04:13:21.540Z,20
2018-04-14T04:14:21.529Z,28
2018-04-14T04:15:21.255Z,36
2018-04-14T04:16:21.505Z,40
2018-04-14T04:17:21.251Z,40
2018-04-14T04:18:21.489Z,44
2018-04-14T04:19:20.961Z,44
2018-04-14T04:20:21.208Z,52
2018-04-14T04:21:20.935Z,56
2018-04-14T04:22:21.182Z,64
2018-04-14T04:23:20.921Z,80
2018-04-14T04:24:21.161Z,88
2018-04-14T04:25:21.414Z,100
2018-04-14T04:26:20.885Z,100
2018-04-14T04:27:21.385Z,104
2018-04-14T04:28:21.592Z,100
2018-04-14T04:29:21.370Z,100
2018-04-14T04:30:21.350Z,104
2018-04-14T04:31:21.339Z,108
2018-04-14T04:32:20.553Z,116
2018-04-14T04:33:21.061Z,132
2018-04-14T04:34:21.055Z,156
2018-04-14T04:35:21.044Z,188
2018-04-14T04:36:20.768Z,220
2018-04-14T04:37:21.271Z,248
2018-04-14T04:38:21.257Z,268
2018-04-14T04:39:21.247Z,284
2018-04-14T04:40:20.977Z,300
2018-04-14T04:41:20.714Z,332
2018-04-14T04:42:20.961Z,368
2018-04-14T04:43:21.200Z,392
2018-04-14T04:44:20.935Z,416
2018-04-14T04:45:20.925Z,444
2018-04-14T04:46:20.924Z,472
2018-04-14T04:47:20.907Z,504
2018-04-14T04:48:20.626Z,536
2018-04-14T04:49:21.144Z,560
2018-04-14T04:50:21.139Z,572
2018-04-14T04:51:20.856Z,552
2018-04-14T04:52:20.846Z,536
2018-04-14T04:53:20.577Z,540
2018-04-14T04:54:21.082Z,588
2018-04-14T04:55:20.814Z,668
2018-04-14T04:56:20.805Z,752
2018-04-14T04:57:20.793Z,844
2018-04-14T04:58:20.778Z,916
2018-04-14T04:59:21.024Z,952
2018-04-14T05:00:20.762Z,960
2018-04-14T05:01:21.013Z,948
2018-04-14T05:02:20.995Z,984
2018-04-14T05:03:20.978Z,1020
2018-04-14T05:04:20.969Z,1024
2018-04-14T05:05:20.181Z,1012
2018-04-14T05:06:20.433Z,1020
2018-04-14T05:07:20.163Z,1064
2018-04-14T05:08:20.928Z,1088
2018-04-14T05:09:20.915Z,1072
2018-04-14T05:10:20.906Z,1092
2018-04-14T05:11:20.378Z,1148
2018-04-14T05:12:20.624Z,1216
2018-04-14T05:13:21.592Z,1264
2018-04-14T05:14:20.342Z,1316
2018-04-14T05:15:20.592Z,1428
2018-04-14T05:16:20.323Z,1540
2018-04-14T05:17:20.826Z,1616
2018-04-14T05:18:20.825Z,1684
2018-04-14T05:19:20.547Z,1864
2018-04-14T05:20:20.789Z,2048
2018-04-14T05:21:20.263Z,2248
2018-04-14T05:22:20.261Z,2408
2018-04-14T05:23:20.502Z,2656
2018-04-14T05:24:20.823Z,2984
2018-04-14T05:25:20.739Z,3316
2018-04-14T05:26:20.726Z,3616
2018-04-14T05:27:20.460Z,3800
2018-04-14T05:28:20.186Z,3904
2018-04-14T05:29:20.434Z,3884
2018-04-14T05:30:20.420Z,3772
2018-04-14T05:31:20.675Z,3868
2018-04-14T05:32:20.398Z,3892
2018-04-14T05:33:20.390Z,3852
2018-04-14T05:34:20.633Z,3704
2018-04-14T05:35:20.368Z,3740
2018-04-14T05:36:20.617Z,3928
2018-04-14T05:37:20.616Z,4288
2018-04-14T05:38:20.336Z,4720
2018-04-14T05:39:20.321Z,4912
2018-04-14T05:40:20.308Z,4768
2018-04-14T05:41:20.561Z,4180
2018-04-14T05:42:20.037Z,3600
2018-04-14T05:43:20.286Z,3108
2018-04-14T05:44:20.023Z,2896
2018-04-14T05:45:20.513Z,2796
2018-04-14T05:46:20.507Z,2736
2018-04-14T05:47:20.492Z,2720
2018-04-14T05:48:20.228Z,2900
2018-04-14T05:49:20.474Z,2996
2018-04-14T05:50:20.462Z,2936
2018-04-14T05:51:20.509Z,2856
2018-04-14T05:52:20.443Z,2808
2018-04-14T05:53:20.207Z,2992
2018-04-14T05:54:20.161Z,3480
2018-04-14T05:55:19.897Z,3888
2018-04-14T05:56:20.401Z,3848
2018-04-14T05:57:20.131Z,3664
2018-04-14T05:58:20.387Z,3628
2018-04-14T05:59:20.102Z,3572
2018-04-14T06:00:19.946Z,3428
2018-04-14T06:01:20.364Z,3208
2018-04-14T06:02:20.341Z,3208
2018-04-14T06:03:20.335Z,3284
2018-04-14T06:04:20.054Z,3336
2018-04-14T06:05:20.303Z,3568
2018-04-14T06:06:19.785Z,3780
2018-04-14T06:07:20.287Z,3664
2018-04-14T06:08:20.268Z,3432
2018-04-14T06:09:20.537Z,3248
2018-04-14T06:10:20.253Z,3132
2018-04-14T06:11:20.245Z,3028
2018-04-14T06:12:19.979Z,2980
2018-04-14T06:13:20.225Z,3020
2018-04-14T06:14:20.204Z,3096
2018-04-14T06:15:20.197Z,3124
2018-04-14T06:16:20.191Z,3048
2018-04-14T06:17:19.923Z,2964
2018-04-14T06:18:19.917Z,3116
2018-04-14T06:19:20.161Z,3148
2018-04-14T06:20:19.889Z,3192
2018-04-14T06:21:19.888Z,3160
2018-04-14T06:22:20.108Z,3060
2018-04-14T06:23:19.862Z,3036
2018-04-14T06:24:19.862Z,3088
2018-04-14T06:25:20.102Z,3112
2018-04-14T06:26:20.084Z,3112
2018-04-14T06:27:19.814Z,3120
2018-04-14T06:28:20.306Z,3124
2018-04-14T06:29:19.535Z,3144
2018-04-14T06:30:19.781Z,3156
2018-04-14T06:31:20.039Z,3148
2018-04-14T06:32:20.062Z,3172
2018-04-14T06:33:19.493Z,3220
2018-04-14T06:34:19.747Z,3276
2018-04-14T06:35:19.993Z,3328
2018-04-14T06:36:19.981Z,3548
2018-04-14T06:37:19.971Z,4324
2018-04-14T06:38:19.703Z,5524
2018-04-14T06:39:19.946Z,6916
2018-04-14T06:40:19.936Z,7620
2018-04-14T06:41:19.929Z,8416
2018-04-14T06:42:19.404Z,7580
2018-04-14T06:43:19.904Z,7108
2018-04-14T06:44:19.637Z,8604
2018-04-14T06:45:19.110Z,9736
2018-04-14T06:46:19.361Z,10828
2018-04-14T06:47:19.607Z,11288
2018-04-14T06:48:19.341Z,11228
2018-04-14T06:49:19.909Z,11180
2018-04-14T06:50:19.325Z,11636
2018-04-14T06:51:19.316Z,12028
2018-04-14T06:52:19.820Z,12352
2018-04-14T06:53:19.566Z,12868
2018-04-14T06:54:19.554Z,13436
2018-04-14T06:55:19.545Z,13888
2018-04-14T06:56:19.790Z,14048
2018-04-14T06:57:19.527Z,14844
2018-04-14T06:58:19.003Z,15256
2018-04-14T06:59:19.521Z,14172
2018-04-14T07:00:19.513Z,14824
2018-04-14T07:01:19.512Z,15588
2018-04-14T07:02:19.767Z,17088
2018-04-14T07:03:19.501Z,15536
2018-04-14T07:04:19.808Z,9784
2018-04-14T07:05:19.490Z,6164
2018-04-14T07:06:19.493Z,5640
2018-04-14T07:07:19.739Z,5132
2018-04-14T07:08:19.484Z,4808
2018-04-14T07:09:19.742Z,4580
2018-04-14T07:10:19.474Z,4424
2018-04-14T07:11:19.207Z,4332
2018-04-14T07:12:19.461Z,4232
2018-04-14T07:13:19.473Z,4144
2018-04-14T07:14:19.203Z,4056
2018-04-14T07:15:19.458Z,3996
2018-04-14T07:16:19.193Z,3944
2018-04-14T07:17:19.446Z,3940
2018-04-14T07:18:19.448Z,3924
2018-04-14T07:19:19.450Z,3980
2018-04-14T07:20:19.696Z,4000
2018-04-14T07:21:19.697Z,3952
2018-04-14T07:22:19.699Z,3900
2018-04-14T07:23:19.693Z,3856
2018-04-14T07:24:19.742Z,3832
2018-04-14T07:25:19.424Z,3812
2018-04-14T07:26:19.683Z,3812
2018-04-14T07:27:19.681Z,3824
2018-04-14T07:28:19.418Z,3812
2018-04-14T07:29:19.418Z,3820
2018-04-14T07:30:19.412Z,3812
2018-04-14T07:31:19.459Z,3784
2018-04-14T07:32:19.672Z,3752
2018-04-14T07:33:19.656Z,3760
2018-04-14T07:34:19.653Z,3772
2018-04-14T07:35:19.653Z,3796
2018-04-14T07:36:19.389Z,3796
2018-04-14T07:37:19.390Z,3840
2018-04-14T07:38:19.385Z,3872
2018-04-14T07:39:19.115Z,3876
2018-04-14T07:40:19.377Z,3900
2018-04-14T07:41:19.370Z,3908
2018-04-14T07:42:19.363Z,3928
2018-04-14T07:43:19.622Z,3960
2018-04-14T07:44:19.360Z,3980
2018-04-14T07:45:19.608Z,4008
2018-04-14T07:46:19.596Z,4012
2018-04-14T07:47:19.331Z,3976
2018-04-14T07:48:19.588Z,3972
2018-04-14T07:49:19.578Z,3956
2018-04-14T07:50:19.598Z,3932
2018-04-14T07:51:19.318Z,3932
2018-04-14T07:52:19.050Z,3960
2018-04-14T07:53:19.562Z,3940
2018-04-14T07:54:19.552Z,3896
2018-04-14T07:55:19.290Z,3888
2018-04-14T07:56:19.538Z,3888
2018-04-14T07:57:19.283Z,3896
2018-04-14T07:58:19.539Z,3876
2018-04-14T07:59:19.541Z,3884
2018-04-14T08:00:19.518Z,3904
2018-04-14T08:01:19.254Z,3884
2018-04-14T08:02:19.264Z,3812
2018-04-14T08:03:18.988Z,3776
2018-04-14T08:04:19.516Z,3764
2018-04-14T08:05:19.239Z,3800
2018-04-14T08:06:19.249Z,3740
2018-04-14T08:07:19.487Z,3736
2018-04-14T08:08:18.975Z,3700
2018-04-14T08:09:19.207Z,3736
2018-04-14T08:10:19.273Z,3788
2018-04-14T08:11:18.947Z,3804
2018-04-14T08:12:19.199Z,3892
2018-04-14T08:13:19.450Z,3896
2018-04-14T08:14:19.186Z,3896
2018-04-14T08:15:19.443Z,3928
2018-04-14T08:16:19.430Z,3940
2018-04-14T08:17:19.438Z,3976
2018-04-14T08:18:19.178Z,3932
2018-04-14T08:19:18.890Z,3908
2018-04-14T08:20:19.408Z,3960
2018-04-14T08:21:19.134Z,3588
2018-04-14T08:22:19.138Z,3436
2018-04-14T08:23:19.129Z,3612
2018-04-14T08:24:19.124Z,4092
2018-04-14T08:25:19.118Z,4808
2018-04-14T08:26:19.108Z,5452
2018-04-14T08:27:19.381Z,6128
2018-04-14T08:28:19.359Z,6636
2018-04-14T08:29:19.361Z,7168
2018-04-14T08:30:19.091Z,7664
2018-04-14T08:31:19.083Z,8076
2018-04-14T08:32:19.344Z,8328
2018-04-14T08:33:19.333Z,8496
2018-04-14T08:34:19.062Z,8620
2018-04-14T08:35:19.316Z,8840
2018-04-14T08:36:19.313Z,9064
2018-04-14T08:37:19.458Z,9280
2018-04-14T08:38:19.295Z,9476
2018-04-14T08:39:18.513Z,9652
2018-04-14T08:40:18.771Z,9788
2018-04-14T08:41:19.023Z,9936
2018-04-14T08:42:19.015Z,9960
2018-04-14T08:43:19.273Z,9804
2018-04-14T08:44:19.002Z,9712
2018-04-14T08:45:19.257Z,9516
2018-04-14T08:46:18.736Z,9272
2018-04-14T08:47:19.083Z,9092
2018-04-14T08:48:18.982Z,8756
2018-04-14T08:49:18.761Z,8504
2018-04-14T08:50:18.972Z,8252
2018-04-14T08:51:19.230Z,8024
2018-04-14T08:52:18.701Z,7920
2018-04-14T08:53:18.695Z,7740
2018-04-14T08:54:19.007Z,7464
2018-04-14T08:55:18.995Z,7312
2018-04-14T08:56:19.193Z,7324
2018-04-14T08:57:19.195Z,7368
2018-04-14T08:58:18.925Z,7504
2018-04-14T08:59:19.182Z,7616
2018-04-14T09:00:18.669Z,7768
2018-04-14T09:01:18.913Z,7976
2018-04-14T09:02:18.910Z,8060
2018-04-14T09:03:19.169Z,8208
2018-04-14T09:04:19.158Z,8240
2018-04-14T09:05:19.158Z,8184
2018-04-14T09:06:18.885Z,8020
2018-04-14T09:07:18.886Z,8024
2018-04-14T09:08:19.143Z,7752
2018-04-14T09:09:19.140Z,7912
2018-04-14T09:10:19.139Z,7972
2018-04-14T09:11:19.121Z,8164
2018-04-14T09:12:18.855Z,8212
2018-04-14T09:13:18.852Z,8492
2018-04-14T09:14:18.849Z,8196
2018-04-14T09:15:19.099Z,8208
2018-04-14T09:16:18.904Z,8080
2018-04-14T09:17:19.091Z,8412
2018-04-14T09:18:18.566Z,7948
2018-04-14T09:19:19.095Z,8208
2018-04-14T09:20:19.102Z,7880
2018-04-14T09:21:19.072Z,7620
2018-04-14T09:22:18.809Z,7456
2018-04-14T09:23:18.809Z,7372
2018-04-14T09:24:18.794Z,7392
2018-04-14T09:25:18.790Z,7592
2018-04-14T09:26:19.044Z,7584
2018-04-14T09:27:19.047Z,7608
2018-04-14T09:28:18.772Z,7696
2018-04-14T09:29:19.035Z,7520
2018-04-14T09:30:19.033Z,7896
2018-04-14T09:31:18.508Z,7956
2018-04-14T09:32:19.021Z,7936
2018-04-14T09:33:18.239Z,8048
2018-04-14T09:34:19.013Z,7864
2018-04-14T09:35:19.006Z,8412
2018-04-14T09:36:19.018Z,8760
2018-04-14T09:37:18.481Z,8868
2018-04-14T09:38:18.733Z,8936
2018-04-14T09:39:18.726Z,9164
2018-04-14T09:40:18.730Z,9172
2018-04-14T09:41:18.462Z,9504
2018-04-14T09:42:18.454Z,10032
2018-04-14T09:43:18.975Z,10600
2018-04-14T09:44:18.704Z,11180
2018-04-14T09:45:18.453Z,10440
2018-04-14T09:46:18.709Z,10112
2018-04-14T09:47:18.434Z,9896
2018-04-14T09:48:18.690Z,9904
2018-04-14T09:49:18.944Z,9896
2018-04-14T09:50:18.947Z,9788
2018-04-14T09:51:18.422Z,9696
2018-04-14T09:52:18.730Z,10032
2018-04-14T09:53:18.669Z,10672
2018-04-14T09:54:18.664Z,9884
2018-04-14T09:55:18.658Z,9592
2018-04-14T09:56:18.660Z,9832
2018-04-14T09:57:18.396Z,10928
2018-04-14T09:58:18.921Z,10740
2018-04-14T09:59:18.386Z,10660
2018-04-14T10:00:18.642Z,10644
2018-04-14T10:01:18.124Z,10628
2018-04-14T10:02:18.632Z,10016
2018-04-14T10:03:18.887Z,9704
2018-04-14T10:04:18.369Z,9412
2018-04-14T10:05:18.883Z,9708
2018-04-14T10:06:18.882Z,10428
2018-04-14T10:07:18.879Z,9780
2018-04-14T10:08:18.868Z,11268
2018-04-14T10:09:18.618Z,10932
2018-04-14T10:10:18.381Z,12008
2018-04-14T10:11:18.864Z,10332
2018-04-14T10:12:18.864Z,10460
2018-04-14T10:13:18.598Z,10452
2018-04-14T10:14:18.854Z,9124
2018-04-14T10:15:18.855Z,8424
2018-04-14T10:16:19.002Z,9484
2018-04-14T10:17:18.840Z,7920
2018-04-14T10:18:18.333Z,8172
2018-04-14T10:19:18.331Z,11128
2018-04-14T10:20:18.326Z,7768
2018-04-14T10:21:18.831Z,6140
2018-04-14T10:22:18.826Z,7032
2018-04-14T10:23:18.565Z,6856
2018-04-14T10:24:18.822Z,5764
2018-04-14T10:25:18.305Z,5632
2018-04-14T10:26:18.558Z,5396
2018-04-14T10:27:18.554Z,5108
2018-04-14T10:28:18.812Z,5020
2018-04-14T10:29:18.808Z,5408
2018-04-14T10:30:18.290Z,5632
2018-04-14T10:31:18.817Z,5400
2018-04-14T10:32:18.954Z,5144
2018-04-14T10:33:18.543Z,4964
2018-04-14T10:34:18.798Z,4764
2018-04-14T10:35:18.272Z,4728
2018-04-14T10:36:18.790Z,4692
2018-04-14T10:37:18.785Z,4756
2018-04-14T10:38:18.528Z,4768
2018-04-14T10:39:18.263Z,4772
2018-04-14T10:40:18.775Z,4736
2018-04-14T10:41:18.522Z,4680
2018-04-14T10:42:18.514Z,3936
2018-04-14T10:43:18.762Z,4284
2018-04-14T10:44:18.766Z,4244
2018-04-14T10:45:18.505Z,4628
2018-04-14T10:46:18.497Z,5540
2018-04-14T10:47:18.755Z,5184
2018-04-14T10:48:18.749Z,4296
2018-04-14T10:49:18.229Z,4576
2018-04-14T10:50:18.744Z,6016
2018-04-14T10:51:18.485Z,6616
2018-04-14T10:52:18.483Z,5852
2018-04-14T10:53:18.481Z,7688
2018-04-14T10:54:17.956Z,6868
2018-04-14T10:55:18.212Z,6736
2018-04-14T10:56:18.257Z,7792
2018-04-14T10:57:18.466Z,8872
2018-04-14T10:58:18.455Z,7776
2018-04-14T10:59:18.715Z,5904
2018-04-14T11:00:18.453Z,5380
2018-04-14T11:01:18.450Z,4504
2018-04-14T11:02:18.181Z,4240
2018-04-14T11:03:18.447Z,3876
2018-04-14T11:04:18.437Z,4200
2018-04-14T11:05:18.434Z,4848
2018-04-14T11:06:18.174Z,6912
2018-04-14T11:07:18.691Z,6792
2018-04-14T11:08:18.168Z,6076
2018-04-14T11:09:18.154Z,6876
2018-04-14T11:10:18.154Z,8404
2018-04-14T11:11:18.421Z,8848
2018-04-14T11:12:18.661Z,9188
2018-04-14T11:13:18.661Z,9152
2018-04-14T11:14:18.666Z,9888
2018-04-14T11:15:18.451Z,9580
2018-04-14T11:16:18.136Z,10728
2018-04-14T11:17:18.137Z,11664
2018-04-14T11:18:18.386Z,10304
2018-04-14T11:19:18.393Z,8868
2018-04-14T11:20:18.382Z,8536
2018-04-14T11:21:18.652Z,7928
2018-04-14T11:22:18.639Z,6900
2018-04-14T11:23:18.624Z,8160
2018-04-14T11:24:18.364Z,9228
2018-04-14T11:25:18.630Z,9808
2018-04-14T11:26:18.102Z,10116
2018-04-14T11:27:18.357Z,10220
2018-04-14T11:28:18.357Z,8840
2018-04-14T11:29:18.354Z,7336
2018-04-14T11:30:18.353Z,5416
2018-04-14T11:31:18.472Z,4560
2018-04-14T11:32:18.602Z,5544
2018-04-14T11:33:18.338Z,6008
2018-04-14T11:34:18.592Z,7208
2018-04-14T11:35:18.394Z,7768
2018-04-14T11:36:18.594Z,7980
2018-04-14T11:37:18.588Z,7212
2018-04-14T11:38:18.592Z,8108
2018-04-14T11:39:18.328Z,9496
2018-04-14T11:40:18.570Z,9544
2018-04-14T11:41:18.571Z,9508
2018-04-14T11:42:18.576Z,8096
2018-04-14T11:43:18.313Z,7612
2018-04-14T11:44:18.573Z,7920
2018-04-14T11:45:18.298Z,7316
2018-04-14T11:46:18.571Z,6424
2018-04-14T11:47:17.785Z,6556
2018-04-14T11:48:18.296Z,7800
2018-04-14T11:49:18.301Z,8688
2018-04-14T11:50:18.032Z,7932
2018-04-14T11:51:18.553Z,6924
2018-04-14T11:52:18.022Z,5812
2018-04-14T11:53:18.278Z,5412
2018-04-14T11:54:18.278Z,6156
2018-04-14T11:55:18.272Z,6216
2018-04-14T11:56:18.288Z,7556
2018-04-14T11:57:18.018Z,7352
2018-04-14T11:58:18.527Z,5952
2018-04-14T11:59:18.521Z,4576
2018-04-14T12:00:18.009Z,5012
2018-04-14T12:01:18.262Z,4184
2018-04-14T12:02:18.025Z,3724
2018-04-14T12:03:18.507Z,3416
2018-04-14T12:04:17.994Z,3152
2018-04-14T12:05:18.254Z,3312
2018-04-14T12:06:18.245Z,3192
2018-04-14T12:07:18.244Z,3740
2018-04-14T12:08:18.496Z,3420
2018-04-14T12:09:18.239Z,3108
2018-04-14T12:10:18.496Z,3040
2018-04-14T12:11:18.227Z,3024
2018-04-14T12:12:18.483Z,3020
2018-04-14T12:13:18.524Z,3084
2018-04-14T12:14:18.490Z,3128
2018-04-14T12:15:18.227Z,3320
2018-04-14T12:16:18.215Z,3336
2018-04-14T12:17:18.223Z,3468
2018-04-14T12:18:18.466Z,3688
2018-04-14T12:19:18.466Z,3828
2018-04-14T12:20:17.948Z,3768
2018-04-14T12:21:18.462Z,3576
2018-04-14T12:22:17.943Z,3500
2018-04-14T12:23:18.457Z,3480
2018-04-14T12:24:17.938Z,3424
2018-04-14T12:25:18.187Z,3352
2018-04-14T12:26:17.671Z,3164
2018-04-14T12:27:18.184Z,3148
2018-04-14T12:28:18.215Z,3112
2018-04-14T12:29:18.174Z,3080
2018-04-14T12:30:18.482Z,3060
2018-04-14T12:31:18.432Z,3352
2018-04-14T12:32:18.431Z,3912
2018-04-14T12:33:18.164Z,3796
2018-04-14T12:34:18.431Z,3548
2018-04-14T12:35:18.166Z,3404
2018-04-14T12:36:18.166Z,3472
2018-04-14T12:37:18.151Z,4124
2018-04-14T12:38:17.891Z,4608
2018-04-14T12:39:18.144Z,5076
2018-04-14T12:40:18.142Z,5036
2018-04-14T12:41:18.144Z,4788
2018-04-14T12:42:18.144Z,4428
2018-04-14T12:43:18.145Z,3968
2018-04-14T12:44:18.139Z,3672
2018-04-14T12:45:18.127Z,3492
2018-04-14T12:46:18.129Z,3468
2018-04-14T12:47:18.384Z,3660
2018-04-14T12:48:18.120Z,4204
2018-04-14T12:49:18.124Z,4264
2018-04-14T12:50:18.115Z,4900
2018-04-14T12:51:17.854Z,5320
2018-04-14T12:52:18.378Z,6084
2018-04-14T12:53:18.104Z,6492
2018-04-14T12:54:18.099Z,7092
2018-04-14T12:55:18.093Z,7348
2018-04-14T12:56:18.098Z,7508
2018-04-14T12:57:18.372Z,8128
2018-04-14T12:58:18.095Z,8144
2018-04-14T12:59:18.082Z,7216
2018-04-14T13:00:18.082Z,6192
2018-04-14T13:01:18.081Z,5660
2018-04-14T13:02:18.077Z,4932
2018-04-14T13:03:18.070Z,5652
2018-04-14T13:04:18.072Z,6764
2018-04-14T13:05:18.065Z,7396
2018-04-14T13:06:18.068Z,7360
2018-04-14T13:07:18.062Z,6168
2018-04-14T13:08:18.313Z,5608
2018-04-14T13:09:18.057Z,5068
2018-04-14T13:10:18.056Z,5264
2018-04-14T13:11:18.314Z,5128
2018-04-14T13:12:18.299Z,4956
2018-04-14T13:13:18.152Z,4496
2018-04-14T13:14:18.038Z,4052
2018-04-14T13:15:18.291Z,3952
2018-04-14T13:16:18.033Z,4436
2018-04-14T13:17:18.295Z,5136
2018-04-14T13:18:18.029Z,5616
2018-04-14T13:19:18.477Z,5620
2018-04-14T13:20:18.291Z,5684
2018-04-14T13:21:18.274Z,5152
2018-04-14T13:22:18.023Z,4516
2018-04-14T13:23:18.011Z,4120
2018-04-14T13:24:17.755Z,3780
2018-04-14T13:25:18.013Z,3580
2018-04-14T13:26:18.010Z,3124
2018-04-14T13:27:18.285Z,3416
2018-04-14T13:28:18.253Z,3524
2018-04-14T13:29:18.260Z,3540
2018-04-14T13:30:18.001Z,3444
2018-04-14T13:31:17.737Z,3232
2018-04-14T13:32:18.247Z,3240
2018-04-14T13:33:17.987Z,3320
2018-04-14T13:34:18.243Z,3428
2018-04-14T13:35:18.237Z,3076
2018-04-14T13:36:17.715Z,3016
2018-04-14T13:37:17.971Z,2916
2018-04-14T13:38:17.711Z,3068
2018-04-14T13:39:17.710Z,4220
2018-04-14T13:40:18.220Z,4604
2018-04-14T13:41:18.223Z,4592
2018-04-14T13:42:17.953Z,4232
2018-04-14T13:43:18.210Z,3868
2018-04-14T13:44:18.211Z,3820
2018-04-14T13:45:18.210Z,3756